createdAt,value
2019-01-14T00:00:28.776Z,983.43
2019-01-14T00:01:28.790Z,983.53
2019-01-14T00:02:28.808Z,983.66
2019-01-14T00:03:28.816Z,983.63
2019-01-14T00:04:28.829Z,983.65
2019-01-14T00:05:28.844Z,983.53
2019-01-14T00:06:28.857Z,983.66
2019-01-14T00:07:28.869Z,983.77
2019-01-14T00:08:28.885Z,983.78
2019-01-14T00:09:31.095Z,983.69
2019-01-14T00:10:28.913Z,983.68
2019-01-14T00:11:28.925Z,983.90
2019-01-14T00:12:28.935Z,983.68
2019-01-14T00:13:28.951Z,983.92
2019-01-14T00:14:28.965Z,983.72
2019-01-14T00:15:28.979Z,983.76
2019-01-14T00:16:28.991Z,984.18
2019-01-14T00:17:29.005Z,983.89
2019-01-14T00:18:29.018Z,983.87
2019-01-14T00:19:29.029Z,984.33
2019-01-14T00:20:29.043Z,984.05
2019-01-14T00:21:29.056Z,983.96
2019-01-14T00:22:29.070Z,984.12
2019-01-14T00:23:29.082Z,984.08
2019-01-14T00:24:29.097Z,984.17
2019-01-14T00:25:29.112Z,984.16
2019-01-14T00:26:29.125Z,984.16
2019-01-14T00:27:29.136Z,984.39
2019-01-14T00:28:29.152Z,984.23
2019-01-14T00:29:29.164Z,984.34
2019-01-14T00:30:29.175Z,984.27
2019-01-14T00:31:29.189Z,984.37
2019-01-14T00:32:29.201Z,984.40
2019-01-14T00:33:29.215Z,984.35
2019-01-14T00:34:29.230Z,984.40
2019-01-14T00:35:29.241Z,984.48
2019-01-14T00:36:29.256Z,984.48
2019-01-14T00:37:29.270Z,984.53
2019-01-14T00:38:29.280Z,984.56
2019-01-14T00:39:29.294Z,984.53
2019-01-14T00:40:29.306Z,984.61
2019-01-14T00:41:29.319Z,984.70
2019-01-14T00:42:29.335Z,984.71
2019-01-14T00:43:29.348Z,984.60
2019-01-14T00:44:29.358Z,984.67
2019-01-14T00:45:29.372Z,984.59
2019-01-14T00:46:29.384Z,984.66
2019-01-14T00:47:29.400Z,984.62
2019-01-14T00:48:29.412Z,984.71
2019-01-14T00:49:29.426Z,984.76
2019-01-14T00:50:29.438Z,984.78
2019-01-14T00:51:29.451Z,984.78
2019-01-14T00:52:29.489Z,984.92
2019-01-14T00:53:29.553Z,984.83
2019-01-14T00:54:29.557Z,984.77
2019-01-14T00:55:29.544Z,984.88
2019-01-14T00:56:29.545Z,984.96
2019-01-14T00:57:29.606Z,984.89
2019-01-14T00:58:29.618Z,984.66
2019-01-14T00:59:29.600Z,985.01
2019-01-14T01:00:29.624Z,985.00
2019-01-14T01:01:29.607Z,984.90
2019-01-14T01:02:29.605Z,985.09
2019-01-14T01:03:29.611Z,985.05
2019-01-14T01:04:29.620Z,985.13
2019-01-14T01:05:29.634Z,985.14
2019-01-14T01:06:29.646Z,985.13
2019-01-14T01:07:29.660Z,985.31
2019-01-14T01:08:29.675Z,985.17
2019-01-14T01:09:29.689Z,985.32
2019-01-14T01:10:29.697Z,985.32
2019-01-14T01:11:29.709Z,985.43
2019-01-14T01:12:29.727Z,985.35
2019-01-14T01:13:29.737Z,985.34
2019-01-14T01:14:29.753Z,985.27
2019-01-14T01:15:29.764Z,985.58
2019-01-14T01:16:29.777Z,985.45
2019-01-14T01:17:29.790Z,985.50
2019-01-14T01:18:29.803Z,985.54
2019-01-14T01:19:29.815Z,985.59
2019-01-14T01:20:29.828Z,985.61
2019-01-14T01:21:29.843Z,985.48
2019-01-14T01:22:29.854Z,985.64
2019-01-14T01:23:29.866Z,985.54
2019-01-14T01:24:29.880Z,985.53
2019-01-14T01:25:29.894Z,985.52
2019-01-14T01:26:29.904Z,985.63
2019-01-14T01:27:29.920Z,985.49
2019-01-14T01:28:29.929Z,985.64
2019-01-14T01:29:29.947Z,985.64
2019-01-14T01:30:29.962Z,985.72
2019-01-14T01:31:29.970Z,985.65
2019-01-14T01:32:29.985Z,985.69
2019-01-14T01:33:29.998Z,985.66
2019-01-14T01:34:30.009Z,985.77
2019-01-14T01:35:30.020Z,985.75
2019-01-14T01:36:31.929Z,985.79
2019-01-14T01:37:30.046Z,985.60
2019-01-14T01:38:30.058Z,985.59
2019-01-14T01:39:30.072Z,985.74
2019-01-14T01:40:30.084Z,985.91
2019-01-14T01:41:30.098Z,985.64
2019-01-14T01:42:30.110Z,985.89
2019-01-14T01:43:30.124Z,985.78
2019-01-14T01:44:30.135Z,985.83
2019-01-14T01:45:30.148Z,985.94
2019-01-14T01:46:30.165Z,985.94
2019-01-14T01:47:30.174Z,985.88
2019-01-14T01:48:30.187Z,985.98
2019-01-14T01:49:30.200Z,986.08
2019-01-14T01:50:30.212Z,986.19
2019-01-14T01:51:30.224Z,986.13
2019-01-14T01:52:30.237Z,986.22
2019-01-14T01:53:30.249Z,986.47
2019-01-14T01:54:30.263Z,986.22
2019-01-14T01:55:30.280Z,986.34
2019-01-14T01:56:30.291Z,986.36
2019-01-14T01:57:30.302Z,986.31
2019-01-14T01:58:30.314Z,986.43
2019-01-14T01:59:30.327Z,986.30
2019-01-14T02:00:30.339Z,986.44
2019-01-14T02:01:30.352Z,986.50
2019-01-14T02:02:30.366Z,986.56
2019-01-14T02:03:30.374Z,986.69
2019-01-14T02:04:30.390Z,986.59
2019-01-14T02:05:30.403Z,986.55
2019-01-14T02:06:30.414Z,986.59
2019-01-14T02:07:30.425Z,986.61
2019-01-14T02:08:30.439Z,986.71
2019-01-14T02:09:30.451Z,986.72
2019-01-14T02:10:30.464Z,986.72
2019-01-14T02:11:30.476Z,986.66
2019-01-14T02:12:30.489Z,986.78
2019-01-14T02:13:30.502Z,986.97
2019-01-14T02:14:30.515Z,986.84
2019-01-14T02:15:30.527Z,986.84
2019-01-14T02:16:30.541Z,986.85
2019-01-14T02:17:30.552Z,986.91
2019-01-14T02:18:30.563Z,987.00
2019-01-14T02:19:30.576Z,986.91
2019-01-14T02:20:30.589Z,986.98
2019-01-14T02:21:30.601Z,986.95
2019-01-14T02:22:30.614Z,987.07
2019-01-14T02:23:30.630Z,987.01
2019-01-14T02:24:30.640Z,986.97
2019-01-14T02:25:30.651Z,987.08
2019-01-14T02:26:30.661Z,986.99
2019-01-14T02:27:30.676Z,987.16
2019-01-14T02:28:30.691Z,987.15
2019-01-14T02:29:30.707Z,987.12
2019-01-14T02:30:30.715Z,987.17
2019-01-14T02:31:30.728Z,987.19
2019-01-14T02:32:30.740Z,987.06
2019-01-14T02:33:30.751Z,987.12
2019-01-14T02:34:30.764Z,987.24
2019-01-14T02:35:30.775Z,987.19
2019-01-14T02:36:30.790Z,987.26
2019-01-14T02:37:30.802Z,987.33
2019-01-14T02:38:30.820Z,987.34
2019-01-14T02:39:30.825Z,987.32
2019-01-14T02:40:30.838Z,987.35
2019-01-14T02:41:30.849Z,987.29
2019-01-14T02:42:30.864Z,987.35
2019-01-14T02:43:30.875Z,987.30
2019-01-14T02:44:30.889Z,987.37
2019-01-14T02:45:30.900Z,987.42
2019-01-14T02:46:30.915Z,987.41
2019-01-14T02:47:30.925Z,987.39
2019-01-14T02:48:30.939Z,987.70
2019-01-14T02:49:30.954Z,987.58
2019-01-14T02:50:30.968Z,987.62
2019-01-14T02:51:30.975Z,987.61
2019-01-14T02:52:30.988Z,987.71
2019-01-14T02:53:31.002Z,987.82
2019-01-14T02:54:31.014Z,987.70
2019-01-14T02:55:31.028Z,987.63
2019-01-14T02:56:31.087Z,987.72
2019-01-14T02:57:31.052Z,987.71
2019-01-14T02:58:31.064Z,987.75
2019-01-14T02:59:31.076Z,987.89
2019-01-14T03:00:31.088Z,987.76
2019-01-14T03:01:31.102Z,987.89
2019-01-14T03:02:31.120Z,988.19
2019-01-14T03:03:31.124Z,987.95
2019-01-14T03:04:31.143Z,988.08
2019-01-14T03:05:31.152Z,988.05
2019-01-14T03:06:31.164Z,988.06
2019-01-14T03:07:31.175Z,988.11
2019-01-14T03:08:31.196Z,988.23
2019-01-14T03:09:31.200Z,988.14
2019-01-14T03:10:31.217Z,988.23
2019-01-14T03:11:31.226Z,988.15
2019-01-14T03:12:31.239Z,988.26
2019-01-14T03:13:31.249Z,988.36
2019-01-14T03:14:31.265Z,988.38
2019-01-14T03:15:31.283Z,988.32
2019-01-14T03:16:31.368Z,988.50
2019-01-14T03:17:31.363Z,988.48
2019-01-14T03:18:31.566Z,988.55
2019-01-14T03:19:31.374Z,988.68
2019-01-14T03:20:31.365Z,988.50
2019-01-14T03:21:31.378Z,988.51
2019-01-14T03:22:31.417Z,988.53
2019-01-14T03:23:31.414Z,988.75
2019-01-14T03:24:31.423Z,988.59
2019-01-14T03:25:31.423Z,988.76
2019-01-14T03:26:31.425Z,988.73
2019-01-14T03:27:31.425Z,988.78
2019-01-14T03:28:31.439Z,988.79
2019-01-14T03:29:31.451Z,988.74
2019-01-14T03:30:31.539Z,988.74
2019-01-14T03:31:31.475Z,988.83
2019-01-14T03:32:31.488Z,988.78
2019-01-14T03:33:31.500Z,988.90
2019-01-14T03:34:31.517Z,988.86
2019-01-14T03:35:31.524Z,988.94
2019-01-14T03:36:31.539Z,988.98
2019-01-14T03:37:31.551Z,988.96
2019-01-14T03:38:31.565Z,988.93
2019-01-14T03:39:31.577Z,988.97
2019-01-14T03:40:31.590Z,989.02
2019-01-14T03:41:31.602Z,989.04
2019-01-14T03:42:31.616Z,988.86
2019-01-14T03:43:31.624Z,989.08
2019-01-14T03:44:31.635Z,989.18
2019-01-14T03:45:31.653Z,989.22
2019-01-14T03:46:31.663Z,989.10
2019-01-14T03:47:31.675Z,989.14
2019-01-14T03:48:31.688Z,989.11
2019-01-14T03:49:31.700Z,989.21
2019-01-14T03:50:31.714Z,989.27
2019-01-14T03:51:31.724Z,989.17
2019-01-14T03:52:31.737Z,989.28
2019-01-14T03:53:31.749Z,989.19
2019-01-14T03:54:31.761Z,989.35
2019-01-14T03:55:31.774Z,989.34
2019-01-14T03:56:31.785Z,989.24
2019-01-14T03:57:31.798Z,989.27
2019-01-14T03:58:31.811Z,989.25
2019-01-14T03:59:31.825Z,989.32
2019-01-14T04:00:31.835Z,989.37
2019-01-14T04:01:31.849Z,989.39
2019-01-14T04:02:31.861Z,989.39
2019-01-14T04:03:31.871Z,989.39
2019-01-14T04:04:31.883Z,989.46
2019-01-14T04:05:31.896Z,989.52
2019-01-14T04:06:31.910Z,989.64
2019-01-14T04:07:31.928Z,989.58
2019-01-14T04:08:31.932Z,989.56
2019-01-14T04:09:31.945Z,989.56
2019-01-14T04:10:31.957Z,989.69
2019-01-14T04:11:31.968Z,989.63
2019-01-14T04:12:31.984Z,989.56
2019-01-14T04:13:31.996Z,989.81
2019-01-14T04:14:32.007Z,989.58
2019-01-14T04:15:32.035Z,989.74
2019-01-14T04:16:32.032Z,989.64
2019-01-14T04:17:32.043Z,989.99
2019-01-14T04:18:32.056Z,989.89
2019-01-14T04:19:32.068Z,989.87
2019-01-14T04:20:32.082Z,990.06
2019-01-14T04:21:32.095Z,989.88
2019-01-14T04:22:32.106Z,989.87
2019-01-14T04:23:32.116Z,989.89
2019-01-14T04:24:32.129Z,990.00
2019-01-14T04:25:32.139Z,989.99
2019-01-14T04:26:32.154Z,989.80
2019-01-14T04:27:32.165Z,989.75
2019-01-14T04:28:32.177Z,989.85
2019-01-14T04:29:32.189Z,989.95
2019-01-14T04:30:32.211Z,989.96
2019-01-14T04:31:32.213Z,990.07
2019-01-14T04:32:32.226Z,990.12
2019-01-14T04:33:32.237Z,990.06
2019-01-14T04:34:32.248Z,990.04
2019-01-14T04:35:32.269Z,990.10
2019-01-14T04:36:32.275Z,990.08
2019-01-14T04:37:32.286Z,990.57
2019-01-14T04:38:32.301Z,990.22
2019-01-14T04:39:32.308Z,990.13
2019-01-14T04:40:32.322Z,990.06
2019-01-14T04:41:32.333Z,990.17
2019-01-14T04:42:32.347Z,990.19
2019-01-14T04:43:32.355Z,990.30
2019-01-14T04:44:32.367Z,990.44
2019-01-14T04:45:32.381Z,990.37
2019-01-14T04:46:32.389Z,990.36
2019-01-14T04:47:32.402Z,990.45
2019-01-14T04:48:32.415Z,990.47
2019-01-14T04:49:32.475Z,990.55
2019-01-14T04:50:32.442Z,990.49
2019-01-14T04:51:32.448Z,990.59
2019-01-14T04:52:32.459Z,990.71
2019-01-14T04:53:32.471Z,990.62
2019-01-14T04:54:32.484Z,990.55
2019-01-14T04:55:32.494Z,990.59
2019-01-14T04:56:32.504Z,990.59
2019-01-14T04:57:32.516Z,990.71
2019-01-14T04:58:32.529Z,990.69
2019-01-14T04:59:32.541Z,990.69
2019-01-14T05:00:32.549Z,990.73
2019-01-14T05:01:32.561Z,990.71
2019-01-14T05:02:32.575Z,990.65
2019-01-14T05:03:32.583Z,990.69
2019-01-14T05:04:32.596Z,990.67
2019-01-14T05:05:32.607Z,990.80
2019-01-14T05:06:32.620Z,990.68
2019-01-14T05:07:32.630Z,990.73
2019-01-14T05:08:32.647Z,990.71
2019-01-14T05:09:32.658Z,990.78
2019-01-14T05:10:32.666Z,990.64
2019-01-14T05:11:32.674Z,990.76
2019-01-14T05:12:32.685Z,990.75
2019-01-14T05:13:32.697Z,990.85
2019-01-14T05:14:32.708Z,990.76
2019-01-14T05:15:32.719Z,990.79
2019-01-14T05:16:32.733Z,990.96
2019-01-14T05:17:32.739Z,990.85
2019-01-14T05:18:32.753Z,990.84
2019-01-14T05:19:32.764Z,990.84
2019-01-14T05:20:32.775Z,990.91
2019-01-14T05:21:32.787Z,990.84
2019-01-14T05:22:32.800Z,990.83
2019-01-14T05:23:32.808Z,990.89
2019-01-14T05:24:32.819Z,990.90
2019-01-14T05:25:32.833Z,990.92
2019-01-14T05:26:32.840Z,990.73
2019-01-14T05:27:32.852Z,990.81
2019-01-14T05:28:32.864Z,990.80
2019-01-14T05:29:32.875Z,990.82
2019-01-14T05:30:32.889Z,990.76
2019-01-14T05:31:32.900Z,990.85
2019-01-14T05:32:32.909Z,990.86
2019-01-14T05:33:32.920Z,990.83
2019-01-14T05:34:32.932Z,990.98
2019-01-14T05:35:32.944Z,990.81
2019-01-14T05:36:32.954Z,990.79
2019-01-14T05:37:37.380Z,990.89
2019-01-14T05:38:32.981Z,990.82
2019-01-14T05:39:32.987Z,990.87
2019-01-14T05:40:32.999Z,990.70
2019-01-14T05:41:33.012Z,990.88
2019-01-14T05:42:33.024Z,990.85
2019-01-14T05:43:33.035Z,990.92
2019-01-14T05:44:33.046Z,990.99
2019-01-14T05:45:33.060Z,990.93
2019-01-14T05:46:33.068Z,990.89
2019-01-14T05:47:33.090Z,990.94
2019-01-14T05:48:33.169Z,991.01
2019-01-14T05:49:33.175Z,990.90
2019-01-14T05:50:33.165Z,990.94
2019-01-14T05:51:33.175Z,991.02
2019-01-14T05:52:33.199Z,991.01
2019-01-14T05:53:33.183Z,990.87
2019-01-14T05:54:33.213Z,990.83
2019-01-14T05:55:33.220Z,990.87
2019-01-14T05:56:33.229Z,990.95
2019-01-14T05:57:33.222Z,991.08
2019-01-14T05:58:33.234Z,990.91
2019-01-14T05:59:33.223Z,991.00
2019-01-14T06:00:33.228Z,991.01
2019-01-14T06:01:33.240Z,990.97
2019-01-14T06:02:33.251Z,990.90
2019-01-14T06:03:33.263Z,990.96
2019-01-14T06:04:33.272Z,991.03
2019-01-14T06:05:33.284Z,990.98
2019-01-14T06:06:33.296Z,991.09
2019-01-14T06:07:33.307Z,991.09
2019-01-14T06:08:33.318Z,991.18
2019-01-14T06:09:33.330Z,991.10
2019-01-14T06:10:33.340Z,991.06
2019-01-14T06:11:33.354Z,991.23
2019-01-14T06:12:33.365Z,991.07
2019-01-14T06:13:33.376Z,991.02
2019-01-14T06:14:33.386Z,991.06
2019-01-14T06:15:33.397Z,990.96
2019-01-14T06:16:33.422Z,991.05
2019-01-14T06:17:33.422Z,991.12
2019-01-14T06:18:33.431Z,991.11
2019-01-14T06:19:33.444Z,991.00
2019-01-14T06:20:33.452Z,991.09
2019-01-14T06:21:33.464Z,991.14
2019-01-14T06:22:33.476Z,991.17
2019-01-14T06:23:33.486Z,991.19
2019-01-14T06:24:33.500Z,991.24
2019-01-14T06:25:33.509Z,991.35
2019-01-14T06:26:33.523Z,991.27
2019-01-14T06:27:33.531Z,991.23
2019-01-14T06:28:33.543Z,991.27
2019-01-14T06:29:33.558Z,991.24
2019-01-14T06:30:33.568Z,991.36
2019-01-14T06:31:33.578Z,991.40
2019-01-14T06:32:33.588Z,991.43
2019-01-14T06:33:33.599Z,991.48
2019-01-14T06:34:33.612Z,991.42
2019-01-14T06:35:33.618Z,991.48
2019-01-14T06:36:33.629Z,991.54
2019-01-14T06:37:33.643Z,991.47
2019-01-14T06:38:33.653Z,991.54
2019-01-14T06:39:33.691Z,991.60
2019-01-14T06:40:33.676Z,991.62
2019-01-14T06:41:33.686Z,991.61
2019-01-14T06:42:33.700Z,991.71
2019-01-14T06:43:33.709Z,991.81
2019-01-14T06:44:33.720Z,991.77
2019-01-14T06:45:33.732Z,991.69
2019-01-14T06:46:33.743Z,991.68
2019-01-14T06:47:33.752Z,991.78
2019-01-14T06:48:33.762Z,991.84
2019-01-14T06:49:33.775Z,991.96
2019-01-14T06:50:33.786Z,991.69
2019-01-14T06:51:33.797Z,991.98
2019-01-14T06:52:33.807Z,992.01
2019-01-14T06:53:33.822Z,992.09
2019-01-14T06:54:33.832Z,992.11
2019-01-14T06:55:33.842Z,992.11
2019-01-14T06:56:33.852Z,992.15
2019-01-14T06:57:33.865Z,992.09
2019-01-14T06:58:33.929Z,992.21
2019-01-14T06:59:33.885Z,992.15
2019-01-14T07:00:33.897Z,992.32
2019-01-14T07:01:33.907Z,992.27
2019-01-14T07:02:33.920Z,992.49
2019-01-14T07:03:33.929Z,992.36
2019-01-14T07:04:33.939Z,992.43
2019-01-14T07:05:33.951Z,992.49
2019-01-14T07:06:33.962Z,992.46
2019-01-14T07:07:33.974Z,992.55
2019-01-14T07:08:33.986Z,992.60
2019-01-14T07:09:33.996Z,992.60
2019-01-14T07:10:34.007Z,992.61
2019-01-14T07:11:34.019Z,992.58
2019-01-14T07:12:34.030Z,992.63
2019-01-14T07:13:34.039Z,992.48
2019-01-14T07:14:34.053Z,992.71
2019-01-14T07:15:34.066Z,992.71
2019-01-14T07:16:34.077Z,992.71
2019-01-14T07:17:34.086Z,992.76
2019-01-14T07:18:34.096Z,992.88
2019-01-14T07:19:34.110Z,992.71
2019-01-14T07:20:34.120Z,992.74
2019-01-14T07:21:34.131Z,992.91
2019-01-14T07:22:34.144Z,992.89
2019-01-14T07:23:34.152Z,993.04
2019-01-14T07:24:34.163Z,992.98
2019-01-14T07:25:34.173Z,992.91
2019-01-14T07:26:34.228Z,993.01
2019-01-14T07:27:34.253Z,993.05
2019-01-14T07:28:34.208Z,993.01
2019-01-14T07:29:34.218Z,992.90
2019-01-14T07:30:34.233Z,993.18
2019-01-14T07:31:34.238Z,992.82
2019-01-14T07:32:34.250Z,993.08
2019-01-14T07:33:34.263Z,993.02
2019-01-14T07:34:34.277Z,993.10
2019-01-14T07:35:34.284Z,993.11
2019-01-14T07:36:34.294Z,993.08
2019-01-14T07:37:34.304Z,993.13
2019-01-14T07:38:34.316Z,993.19
2019-01-14T07:39:34.328Z,993.18
2019-01-14T07:40:34.340Z,993.08
2019-01-14T07:41:34.350Z,993.16
2019-01-14T07:42:34.362Z,993.11
2019-01-14T07:43:34.370Z,993.24
2019-01-14T07:44:34.382Z,993.24
2019-01-14T07:45:34.395Z,993.21
2019-01-14T07:46:34.404Z,993.25
2019-01-14T07:47:34.416Z,993.35
2019-01-14T07:48:34.427Z,993.32
2019-01-14T07:49:34.436Z,993.35
2019-01-14T07:50:34.447Z,993.41
2019-01-14T07:51:34.459Z,993.42
2019-01-14T07:52:34.512Z,993.38
2019-01-14T07:53:34.479Z,993.46
2019-01-14T07:54:34.491Z,993.47
2019-01-14T07:55:34.503Z,993.47
2019-01-14T07:56:34.520Z,993.49
2019-01-14T07:57:34.523Z,993.45
2019-01-14T07:58:34.538Z,993.53
2019-01-14T07:59:34.545Z,993.55
2019-01-14T08:00:34.558Z,993.47
2019-01-14T08:01:34.572Z,993.63
2019-01-14T08:02:34.580Z,993.66
2019-01-14T08:03:34.593Z,993.69
2019-01-14T08:04:34.601Z,993.60
2019-01-14T08:05:34.613Z,993.72
2019-01-14T08:06:34.626Z,993.71
2019-01-14T08:07:34.636Z,993.75
2019-01-14T08:08:34.646Z,993.77
2019-01-14T08:09:34.659Z,993.76
2019-01-14T08:10:34.671Z,993.71
2019-01-14T08:11:34.683Z,993.84
2019-01-14T08:12:34.692Z,993.80
2019-01-14T08:13:34.704Z,993.82
2019-01-14T08:14:34.716Z,993.90
2019-01-14T08:15:34.726Z,994.02
2019-01-14T08:16:34.737Z,993.93
2019-01-14T08:17:34.748Z,993.95
2019-01-14T08:18:34.759Z,993.93
2019-01-14T08:19:34.770Z,994.01
2019-01-14T08:20:34.782Z,994.03
2019-01-14T08:21:34.793Z,993.96
2019-01-14T08:22:34.804Z,994.05
2019-01-14T08:23:34.817Z,994.01
2019-01-14T08:24:34.826Z,994.05
2019-01-14T08:25:34.837Z,994.01
2019-01-14T08:26:34.851Z,994.01
2019-01-14T08:27:34.861Z,994.03
2019-01-14T08:28:34.883Z,994.02
2019-01-14T08:29:34.920Z,994.20
2019-01-14T08:30:34.962Z,994.07
2019-01-14T08:31:34.966Z,994.09
2019-01-14T08:32:34.969Z,994.01
2019-01-14T08:33:34.963Z,994.05
2019-01-14T08:34:35.024Z,994.08
2019-01-14T08:35:35.021Z,993.93
2019-01-14T08:36:35.020Z,994.13
2019-01-14T08:37:35.015Z,994.11
2019-01-14T08:38:35.022Z,994.18
2019-01-14T08:39:35.012Z,994.20
2019-01-14T08:40:35.014Z,994.18
2019-01-14T08:41:35.028Z,994.09
2019-01-14T08:42:35.048Z,994.23
2019-01-14T08:43:35.046Z,994.29
2019-01-14T08:44:35.055Z,994.22
2019-01-14T08:45:35.065Z,994.33
2019-01-14T08:46:35.079Z,994.24
2019-01-14T08:47:35.088Z,994.27
2019-01-14T08:48:35.100Z,994.19
2019-01-14T08:49:35.111Z,994.24
2019-01-14T08:50:35.128Z,994.22
2019-01-14T08:51:35.137Z,994.28
2019-01-14T08:52:35.145Z,994.23
2019-01-14T08:53:35.157Z,994.30
2019-01-14T08:54:35.171Z,994.33
2019-01-14T08:55:35.178Z,994.34
2019-01-14T08:56:35.191Z,994.39
2019-01-14T08:57:35.201Z,994.47
2019-01-14T08:58:35.214Z,994.33
2019-01-14T08:59:35.226Z,994.41
2019-01-14T09:00:35.239Z,994.40
2019-01-14T09:01:35.249Z,994.34
2019-01-14T09:02:35.258Z,994.51
2019-01-14T09:03:35.273Z,994.39
2019-01-14T09:04:35.282Z,994.42
2019-01-14T09:05:35.292Z,994.68
2019-01-14T09:06:35.305Z,994.41
2019-01-14T09:07:35.314Z,994.53
2019-01-14T09:08:35.326Z,994.53
2019-01-14T09:09:35.336Z,994.54
2019-01-14T09:10:35.352Z,994.58
2019-01-14T09:11:35.361Z,994.56
2019-01-14T09:12:35.369Z,994.58
2019-01-14T09:13:35.382Z,994.56
2019-01-14T09:14:35.393Z,994.54
2019-01-14T09:15:35.406Z,994.63
2019-01-14T09:16:35.415Z,994.57
2019-01-14T09:17:35.449Z,994.71
2019-01-14T09:18:35.436Z,994.68
2019-01-14T09:19:35.447Z,994.72
2019-01-14T09:20:35.457Z,994.80
2019-01-14T09:21:35.473Z,994.70
2019-01-14T09:22:35.480Z,994.53
2019-01-14T09:23:35.490Z,994.65
2019-01-14T09:24:35.505Z,994.56
2019-01-14T09:25:35.514Z,994.72
2019-01-14T09:26:35.526Z,994.66
2019-01-14T09:27:35.536Z,994.76
2019-01-14T09:28:35.547Z,994.79
2019-01-14T09:29:35.556Z,994.83
2019-01-14T09:30:35.572Z,994.75
2019-01-14T09:31:35.578Z,994.78
2019-01-14T09:32:35.588Z,994.82
2019-01-14T09:33:35.602Z,994.84
2019-01-14T09:34:35.612Z,994.83
2019-01-14T09:35:35.626Z,994.84
2019-01-14T09:36:35.634Z,994.98
2019-01-14T09:37:35.646Z,994.76
2019-01-14T09:38:35.946Z,994.79
2019-01-14T09:39:35.668Z,994.90
2019-01-14T09:40:35.680Z,994.89
2019-01-14T09:41:35.698Z,994.88
2019-01-14T09:42:35.704Z,994.94
2019-01-14T09:43:35.712Z,994.86
2019-01-14T09:44:35.726Z,994.95
2019-01-14T09:45:35.735Z,994.89
2019-01-14T09:46:35.748Z,994.99
2019-01-14T09:47:35.757Z,994.94
2019-01-14T09:48:35.769Z,994.95
2019-01-14T09:49:35.779Z,994.90
2019-01-14T09:50:35.788Z,995.07
2019-01-14T09:51:35.799Z,994.95
2019-01-14T09:52:35.814Z,994.93
2019-01-14T09:53:35.823Z,994.90
2019-01-14T09:54:35.835Z,994.85
2019-01-14T09:55:35.844Z,994.95
2019-01-14T09:56:35.857Z,994.85
2019-01-14T09:57:35.870Z,995.01
2019-01-14T09:58:35.881Z,994.94
2019-01-14T09:59:35.891Z,994.86
2019-01-14T10:00:35.900Z,994.95
2019-01-14T10:01:35.914Z,994.90
2019-01-14T10:02:35.926Z,994.95
2019-01-14T10:03:35.935Z,994.81
2019-01-14T10:04:35.948Z,994.92
2019-01-14T10:05:35.959Z,994.96
2019-01-14T10:06:35.971Z,994.93
2019-01-14T10:07:35.980Z,994.87
2019-01-14T10:08:42.901Z,994.93
2019-01-14T10:09:36.004Z,994.89
2019-01-14T10:10:36.017Z,994.83
2019-01-14T10:11:36.026Z,994.82
2019-01-14T10:12:36.043Z,994.76
2019-01-14T10:13:36.050Z,994.85
2019-01-14T10:14:36.060Z,994.84
2019-01-14T10:15:36.070Z,995.02
2019-01-14T10:16:36.084Z,994.94
2019-01-14T10:17:36.094Z,994.92
2019-01-14T10:18:36.106Z,994.97
2019-01-14T10:19:36.115Z,994.82
2019-01-14T10:20:36.129Z,994.94
2019-01-14T10:21:36.140Z,994.88
2019-01-14T10:22:36.151Z,994.81
2019-01-14T10:23:36.162Z,995.05
2019-01-14T10:24:36.172Z,994.93
2019-01-14T10:25:36.186Z,994.86
2019-01-14T10:26:36.198Z,994.90
2019-01-14T10:27:36.206Z,994.77
2019-01-14T10:28:36.222Z,994.90
2019-01-14T10:29:36.230Z,994.85
2019-01-14T10:30:36.242Z,994.97
2019-01-14T10:31:36.255Z,994.88
2019-01-14T10:32:36.266Z,994.97
2019-01-14T10:33:36.281Z,994.94
2019-01-14T10:34:36.290Z,994.95
2019-01-14T10:35:36.303Z,994.97
2019-01-14T10:36:36.312Z,994.87
2019-01-14T10:37:36.324Z,994.80
2019-01-14T10:38:36.335Z,994.84
2019-01-14T10:39:36.348Z,994.90
2019-01-14T10:40:36.359Z,994.90
2019-01-14T10:41:36.370Z,994.97
2019-01-14T10:42:36.389Z,994.82
2019-01-14T10:43:36.392Z,994.69
2019-01-14T10:44:36.404Z,994.82
2019-01-14T10:45:36.418Z,994.82
2019-01-14T10:46:36.428Z,994.85
2019-01-14T10:47:36.441Z,994.74
2019-01-14T10:48:36.454Z,994.84
2019-01-14T10:49:36.463Z,994.76
2019-01-14T10:50:36.477Z,994.95
2019-01-14T10:51:36.488Z,994.76
2019-01-14T10:52:36.499Z,994.87
2019-01-14T10:53:36.512Z,994.78
2019-01-14T10:54:36.523Z,994.79
2019-01-14T10:55:36.534Z,994.77
2019-01-14T10:56:36.545Z,994.88
2019-01-14T10:57:36.559Z,994.87
2019-01-14T10:58:36.567Z,994.68
2019-01-14T10:59:36.579Z,994.78
2019-01-14T11:00:36.590Z,994.84
2019-01-14T11:01:36.605Z,994.84
2019-01-14T11:02:36.615Z,994.93
2019-01-14T11:03:36.627Z,994.88
2019-01-14T11:04:36.639Z,994.86
2019-01-14T11:05:36.651Z,994.98
2019-01-14T11:06:36.663Z,995.03
2019-01-14T11:07:36.694Z,994.96
2019-01-14T11:08:36.753Z,995.01
2019-01-14T11:09:36.769Z,995.00
2019-01-14T11:10:36.762Z,994.91
2019-01-14T11:11:36.762Z,995.14
2019-01-14T11:12:36.769Z,995.12
2019-01-14T11:13:36.811Z,995.13
2019-01-14T11:14:37.783Z,995.10
2019-01-14T11:15:36.842Z,995.15
2019-01-14T11:16:36.819Z,995.22
2019-01-14T11:17:36.825Z,995.16
2019-01-14T11:18:36.826Z,995.18
2019-01-14T11:19:36.818Z,995.26
2019-01-14T11:20:36.830Z,995.11
2019-01-14T11:21:36.844Z,995.28
2019-01-14T11:22:36.854Z,995.18
2019-01-14T11:23:36.864Z,995.32
2019-01-14T11:24:36.878Z,995.11
2019-01-14T11:25:36.891Z,995.27
2019-01-14T11:26:36.901Z,995.30
2019-01-14T11:27:36.914Z,995.24
2019-01-14T11:28:36.926Z,995.31
2019-01-14T11:29:36.938Z,995.33
2019-01-14T11:30:36.950Z,995.37
2019-01-14T11:31:36.963Z,995.36
2019-01-14T11:32:36.973Z,995.50
2019-01-14T11:33:36.984Z,995.51
2019-01-14T11:34:36.997Z,995.45
2019-01-14T11:35:37.009Z,995.47
2019-01-14T11:36:37.022Z,995.60
2019-01-14T11:37:37.035Z,995.59
2019-01-14T11:38:37.044Z,995.37
2019-01-14T11:39:37.058Z,995.36
2019-01-14T11:40:37.067Z,995.42
2019-01-14T11:41:37.079Z,995.43
2019-01-14T11:42:37.094Z,995.50
2019-01-14T11:43:37.108Z,995.38
2019-01-14T11:44:37.119Z,995.33
2019-01-14T11:45:37.131Z,995.50
2019-01-14T11:46:37.142Z,995.37
2019-01-14T11:47:37.154Z,995.72
2019-01-14T11:48:37.165Z,995.46
2019-01-14T11:49:37.178Z,995.38
2019-01-14T11:50:37.193Z,995.56
2019-01-14T11:51:37.205Z,995.46
2019-01-14T11:52:37.217Z,995.71
2019-01-14T11:53:37.230Z,995.65
2019-01-14T11:54:37.243Z,995.55
2019-01-14T11:55:37.255Z,995.62
2019-01-14T11:56:37.269Z,995.62
2019-01-14T11:57:37.281Z,995.61
2019-01-14T11:58:37.296Z,995.77
2019-01-14T11:59:37.304Z,995.74
2019-01-14T12:00:37.318Z,995.77
2019-01-14T12:01:37.330Z,995.91
2019-01-14T12:02:39.611Z,995.89
2019-01-14T12:03:37.354Z,995.81
2019-01-14T12:04:37.368Z,995.91
2019-01-14T12:05:37.380Z,996.10
2019-01-14T12:06:37.393Z,996.00
2019-01-14T12:07:37.405Z,996.19
2019-01-14T12:08:37.423Z,996.14
2019-01-14T12:09:37.430Z,996.09
2019-01-14T12:10:37.443Z,996.05
2019-01-14T12:11:37.454Z,995.93
2019-01-14T12:12:37.466Z,995.93
2019-01-14T12:13:37.481Z,996.00
2019-01-14T12:14:37.494Z,996.15
2019-01-14T12:15:37.504Z,995.90
2019-01-14T12:16:37.514Z,995.84
2019-01-14T12:17:37.529Z,995.78
2019-01-14T12:18:37.541Z,995.84
2019-01-14T12:19:37.553Z,995.79
2019-01-14T12:20:37.565Z,995.77
2019-01-14T12:21:37.584Z,995.71
2019-01-14T12:22:37.588Z,995.80
2019-01-14T12:23:37.603Z,996.00
2019-01-14T12:24:37.616Z,995.74
2019-01-14T12:25:37.627Z,995.78
2019-01-14T12:26:37.640Z,996.01
2019-01-14T12:27:37.652Z,995.82
2019-01-14T12:28:37.663Z,995.93